sensor_id;sensor_type;location;lat;lon;timestamp;P1;durP1;ratioP1;P2;durP2;ratioP2
36797;SDS011;22748;8.426;99.512;2023-03-03T00:41:06;27.25;;;19.35;;
36797;SDS011;22748;8.426;99.512;2023-03-03T00:43:46;23.38;;;19.27;;
36797;SDS011;22748;8.426;99.512;2023-03-03T00:46:17;30.17;;;22.25;;
36797;SDS011;22748;8.426;99.512;2023-03-03T00:48:49;28.27;;;20.88;;
36797;SDS011;22748;8.426;99.512;2023-03-03T00:51:26;28.83;;;20.85;;
36797;SDS011;22748;8.426;99.512;2023-03-03T00:54:01;31.88;;;21.70;;
36797;SDS011;22748;8.426;99.512;2023-03-03T00:56:32;31.42;;;21.00;;
36797;SDS011;22748;8.426;99.512;2023-03-03T00:59:02;27.25;;;20.88;;
36797;SDS011;22748;8.426;99.512;2023-03-03T01:01:35;27.38;;;19.38;;
36797;SDS011;22748;8.426;99.512;2023-03-03T01:04:05;47.28;;;24.23;;
36797;SDS011;22748;8.426;99.512;2023-03-03T01:09:09;48.83;;;29.98;;
36797;SDS011;22748;8.426;99.512;2023-03-03T01:11:40;45.28;;;27.33;;
36797;SDS011;22748;8.426;99.512;2023-03-03T01:14:11;37.40;;;21.17;;
36797;SDS011;22748;8.426;99.512;2023-03-03T01:16:41;29.77;;;19.38;;
36797;SDS011;22748;8.426;99.512;2023-03-03T01:19:12;31.02;;;21.23;;
36797;SDS011;22748;8.426;99.512;2023-03-03T01:21:43;34.35;;;21.88;;
36797;SDS011;22748;8.426;99.512;2023-03-03T01:24:16;32.90;;;20.52;;
36797;SDS011;22748;8.426;99.512;2023-03-03T01:26:47;29.55;;;16.92;;
36797;SDS011;22748;8.426;99.512;2023-03-03T01:29:18;28.85;;;18.38;;
36797;SDS011;22748;8.426;99.512;2023-03-03T01:34:18;26.35;;;15.70;;
36797;SDS011;22748;8.426;99.512;2023-03-03T01:36:49;22.77;;;15.57;;
36797;SDS011;22748;8.426;99.512;2023-03-03T01:39:34;22.67;;;15.65;;
36797;SDS011;22748;8.426;99.512;2023-03-03T01:42:05;26.58;;;14.85;;
36797;SDS011;22748;8.426;99.512;2023-03-03T01:44:36;24.52;;;15.55;;
36797;SDS011;22748;8.426;99.512;2023-03-03T01:49:39;21.90;;;14.77;;
36797;SDS011;22748;8.426;99.512;2023-03-03T01:52:17;20.83;;;15.00;;
36797;SDS011;22748;8.426;99.512;2023-03-03T01:54:54;22.40;;;14.88;;
36797;SDS011;22748;8.426;99.512;2023-03-03T01:57:28;30.38;;;17.95;;
36797;SDS011;22748;8.426;99.512;2023-03-03T02:00:05;32.30;;;19.52;;
36797;SDS011;22748;8.426;99.512;2023-03-03T02:02:37;35.22;;;19.45;;
36797;SDS011;22748;8.426;99.512;2023-03-03T02:05:09;35.38;;;21.88;;
36797;SDS011;22748;8.426;99.512;2023-03-03T02:10:16;26.77;;;18.38;;
36797;SDS011;22748;8.426;99.512;2023-03-03T02:12:48;26.13;;;18.70;;
36797;SDS011;22748;8.426;99.512;2023-03-03T02:15:22;25.80;;;18.75;;
36797;SDS011;22748;8.426;99.512;2023-03-03T02:17:54;26.13;;;20.40;;
36797;SDS011;22748;8.426;99.512;2023-03-03T02:20:29;26.48;;;20.15;;
36797;SDS011;22748;8.426;99.512;2023-03-03T02:23:08;23.13;;;18.80;;
36797;SDS011;22748;8.426;99.512;2023-03-03T02:25:51;24.88;;;18.25;;
36797;SDS011;22748;8.426;99.512;2023-03-03T02:28:32;21.55;;;18.30;;
36797;SDS011;22748;8.426;99.512;2023-03-03T02:31:04;22.20;;;17.25;;
36797;SDS011;22748;8.426;99.512;2023-03-03T02:33:38;22.33;;;17.08;;
36797;SDS011;22748;8.426;99.512;2023-03-03T02:41:17;25.88;;;16.38;;
36797;SDS011;22748;8.426;99.512;2023-03-03T02:43:58;23.40;;;15.98;;
36797;SDS011;22748;8.426;99.512;2023-03-03T02:46:32;19.08;;;15.20;;
36797;SDS011;22748;8.426;99.512;2023-03-03T02:49:04;21.90;;;16.73;;
36797;SDS011;22748;8.426;99.512;2023-03-03T02:51:36;20.33;;;15.82;;
36797;SDS011;22748;8.426;99.512;2023-03-03T02:54:08;19.67;;;15.60;;
36797;SDS011;22748;8.426;99.512;2023-03-03T02:56:43;21.42;;;15.80;;
36797;SDS011;22748;8.426;99.512;2023-03-03T02:59:14;24.52;;;16.98;;
36797;SDS011;22748;8.426;99.512;2023-03-03T03:04:21;21.75;;;15.93;;
36797;SDS011;22748;8.426;99.512;2023-03-03T03:06:53;23.20;;;15.85;;
36797;SDS011;22748;8.426;99.512;2023-03-03T03:09:23;20.88;;;16.30;;
36797;SDS011;22748;8.426;99.512;2023-03-03T03:11:57;20.17;;;15.60;;
36797;SDS011;22748;8.426;99.512;2023-03-03T03:14:28;19.27;;;15.57;;
36797;SDS011;22748;8.426;99.512;2023-03-03T03:19:29;22.83;;;15.50;;
36797;SDS011;22748;8.426;99.512;2023-03-03T03:22:00;21.58;;;15.43;;
36797;SDS011;22748;8.426;99.512;2023-03-03T03:24:31;20.63;;;14.43;;
36797;SDS011;22748;8.426;99.512;2023-03-03T03:27:04;20.20;;;14.07;;
36797;SDS011;22748;8.426;99.512;2023-03-03T03:29:34;20.35;;;14.40;;
36797;SDS011;22748;8.426;99.512;2023-03-03T03:32:05;21.73;;;14.77;;
36797;SDS011;22748;8.426;99.512;2023-03-03T03:34:38;23.60;;;15.35;;
36797;SDS011;22748;8.426;99.512;2023-03-03T03:37:09;27.48;;;15.27;;
36797;SDS011;22748;8.426;99.512;2023-03-03T03:39:41;21.70;;;13.73;;
36797;SDS011;22748;8.426;99.512;2023-03-03T03:42:14;18.33;;;11.40;;
36797;SDS011;22748;8.426;99.512;2023-03-03T03:44:45;10.85;;;8.52;;
36797;SDS011;22748;8.426;99.512;2023-03-03T03:47:17;12.73;;;8.25;;
36797;SDS011;22748;8.426;99.512;2023-03-03T03:49:49;12.88;;;8.50;;
36797;SDS011;22748;8.426;99.512;2023-03-03T03:52:19;12.60;;;8.10;;
36797;SDS011;22748;8.426;99.512;2023-03-03T03:54:52;11.95;;;7.68;;
36797;SDS011;22748;8.426;99.512;2023-03-03T03:57:29;11.48;;;6.70;;
36797;SDS011;22748;8.426;99.512;2023-03-03T04:00:00;11.38;;;5.40;;
36797;SDS011;22748;8.426;99.512;2023-03-03T04:02:31;8.10;;;4.65;;
36797;SDS011;22748;8.426;99.512;2023-03-03T04:05:01;10.38;;;5.88;;
36797;SDS011;22748;8.426;99.512;2023-03-03T04:07:35;4.15;;;3.53;;
36797;SDS011;22748;8.426;99.512;2023-03-03T04:10:05;18.90;;;9.15;;
36797;SDS011;22748;8.426;99.512;2023-03-03T04:12:37;14.77;;;6.05;;
36797;SDS011;22748;8.426;99.512;2023-03-03T04:15:08;9.18;;;5.40;;
36797;SDS011;22748;8.426;99.512;2023-03-03T04:17:41;6.38;;;3.30;;
36797;SDS011;22748;8.426;99.512;2023-03-03T04:20:12;3.88;;;2.88;;
36797;SDS011;22748;8.426;99.512;2023-03-03T04:22:44;3.33;;;2.42;;
36797;SDS011;22748;8.426;99.512;2023-03-03T04:25:16;6.13;;;2.75;;
36797;SDS011;22748;8.426;99.512;2023-03-03T04:27:49;2.85;;;2.00;;
36797;SDS011;22748;8.426;99.512;2023-03-03T04:30:20;1.60;;;1.40;;
36797;SDS011;22748;8.426;99.512;2023-03-03T04:32:51;2.17;;;1.95;;
36797;SDS011;22748;8.426;99.512;2023-03-03T04:35:22;2.97;;;2.00;;
36797;SDS011;22748;8.426;99.512;2023-03-03T04:37:53;3.30;;;1.80;;
36797;SDS011;22748;8.426;99.512;2023-03-03T04:40:23;3.05;;;1.45;;
36797;SDS011;22748;8.426;99.512;2023-03-03T04:42:56;4.80;;;1.98;;
36797;SDS011;22748;8.426;99.512;2023-03-03T04:45:27;4.05;;;1.48;;
36797;SDS011;22748;8.426;99.512;2023-03-03T04:47:58;2.50;;;1.50;;
36797;SDS011;22748;8.426;99.512;2023-03-03T04:50:30;2.65;;;1.88;;
36797;SDS011;22748;8.426;99.512;2023-03-03T04:53:01;1.67;;;1.48;;
36797;SDS011;22748;8.426;99.512;2023-03-03T04:55:34;2.45;;;1.50;;
36797;SDS011;22748;8.426;99.512;2023-03-03T04:58:07;1.73;;;1.60;;
36797;SDS011;22748;8.426;99.512;2023-03-03T05:00:38;2.45;;;1.75;;
36797;SDS011;22748;8.426;99.512;2023-03-03T05:03:10;3.53;;;2.25;;
36797;SDS011;22748;8.426;99.512;2023-03-03T05:05:41;2.53;;;2.08;;
36797;SDS011;22748;8.426;99.512;2023-03-03T05:08:11;1.95;;;1.75;;
36797;SDS011;22748;8.426;99.512;2023-03-03T05:10:43;3.30;;;2.10;;
36797;SDS011;22748;8.426;99.512;2023-03-03T05:13:16;3.17;;;1.95;;
36797;SDS011;22748;8.426;99.512;2023-03-03T05:15:50;3.22;;;2.08;;
36797;SDS011;22748;8.426;99.512;2023-03-03T05:18:20;3.17;;;2.30;;
36797;SDS011;22748;8.426;99.512;2023-03-03T05:20:51;2.33;;;2.13;;
36797;SDS011;22748;8.426;99.512;2023-03-03T05:23:21;2.50;;;2.20;;
36797;SDS011;22748;8.426;99.512;2023-03-03T05:25:52;2.38;;;2.17;;
36797;SDS011;22748;8.426;99.512;2023-03-03T05:28:24;2.33;;;2.03;;
36797;SDS011;22748;8.426;99.512;2023-03-03T05:30:55;2.50;;;2.30;;
36797;SDS011;22748;8.426;99.512;2023-03-03T05:33:28;2.78;;;2.20;;
36797;SDS011;22748;8.426;99.512;2023-03-03T05:35:58;2.50;;;2.30;;
36797;SDS011;22748;8.426;99.512;2023-03-03T05:38:28;6.20;;;2.58;;
36797;SDS011;22748;8.426;99.512;2023-03-03T05:41:04;4.28;;;2.50;;
36797;SDS011;22748;8.426;99.512;2023-03-03T05:43:36;2.40;;;2.20;;
36797;SDS011;22748;8.426;99.512;2023-03-03T05:46:07;6.47;;;2.70;;
36797;SDS011;22748;8.426;99.512;2023-03-03T05:48:38;5.20;;;3.17;;
36797;SDS011;22748;8.426;99.512;2023-03-03T05:51:08;4.60;;;2.60;;
36797;SDS011;22748;8.426;99.512;2023-03-03T05:53:38;3.92;;;2.92;;
36797;SDS011;22748;8.426;99.512;2023-03-03T05:56:09;3.47;;;2.80;;
36797;SDS011;22748;8.426;99.512;2023-03-03T05:58:44;3.65;;;2.90;;
36797;SDS011;22748;8.426;99.512;2023-03-03T06:01:15;3.90;;;2.85;;
36797;SDS011;22748;8.426;99.512;2023-03-03T06:03:46;8.20;;;7.28;;
36797;SDS011;22748;8.426;99.512;2023-03-03T06:06:16;8.57;;;5.35;;
36797;SDS011;22748;8.426;99.512;2023-03-03T06:08:48;5.00;;;4.47;;
36797;SDS011;22748;8.426;99.512;2023-03-03T06:11:19;5.20;;;4.10;;
36797;SDS011;22748;8.426;99.512;2023-03-03T06:13:52;4.57;;;4.10;;
36797;SDS011;22748;8.426;99.512;2023-03-03T06:16:22;4.60;;;4.20;;
36797;SDS011;22748;8.426;99.512;2023-03-03T06:18:52;4.60;;;4.18;;
36797;SDS011;22748;8.426;99.512;2023-03-03T06:21:22;6.47;;;4.57;;
36797;SDS011;22748;8.426;99.512;2023-03-03T06:23:53;8.45;;;4.97;;
36797;SDS011;22748;8.426;99.512;2023-03-03T06:26:23;5.20;;;4.70;;
36797;SDS011;22748;8.426;99.512;2023-03-03T06:28:58;6.47;;;5.07;;
36797;SDS011;22748;8.426;99.512;2023-03-03T06:31:28;6.50;;;5.00;;
36797;SDS011;22748;8.426;99.512;2023-03-03T06:33:58;6.63;;;5.10;;
36797;SDS011;22748;8.426;99.512;2023-03-03T06:36:28;7.95;;;7.25;;
36797;SDS011;22748;8.426;99.512;2023-03-03T06:38:58;16.95;;;12.23;;
36797;SDS011;22748;8.426;99.512;2023-03-03T06:41:29;14.85;;;12.02;;
36797;SDS011;22748;8.426;99.512;2023-03-03T06:44:01;13.70;;;9.20;;
36797;SDS011;22748;8.426;99.512;2023-03-03T06:46:33;11.50;;;7.88;;
36797;SDS011;22748;8.426;99.512;2023-03-03T06:49:04;10.18;;;7.47;;
36797;SDS011;22748;8.426;99.512;2023-03-03T06:51:37;19.13;;;14.23;;
36797;SDS011;22748;8.426;99.512;2023-03-03T06:54:17;13.13;;;10.05;;
36797;SDS011;22748;8.426;99.512;2023-03-03T06:56:55;13.07;;;9.85;;
36797;SDS011;22748;8.426;99.512;2023-03-03T06:59:31;9.98;;;7.80;;
36797;SDS011;22748;8.426;99.512;2023-03-03T07:02:08;9.90;;;7.40;;
36797;SDS011;22748;8.426;99.512;2023-03-03T07:04:44;8.38;;;6.22;;
36797;SDS011;22748;8.426;99.512;2023-03-03T07:07:15;7.10;;;6.40;;
36797;SDS011;22748;8.426;99.512;2023-03-03T07:09:48;7.03;;;6.28;;
36797;SDS011;22748;8.426;99.512;2023-03-03T07:12:21;8.02;;;6.15;;
36797;SDS011;22748;8.426;99.512;2023-03-03T07:14:57;7.03;;;6.28;;
36797;SDS011;22748;8.426;99.512;2023-03-03T07:17:41;18.80;;;9.18;;
36797;SDS011;22748;8.426;99.512;2023-03-03T07:20:16;20.42;;;10.05;;
36797;SDS011;22748;8.426;99.512;2023-03-03T07:22:49;10.02;;;8.57;;
36797;SDS011;22748;8.426;99.512;2023-03-03T07:25:24;8.50;;;7.70;;
36797;SDS011;22748;8.426;99.512;2023-03-03T07:28:06;8.88;;;7.35;;
36797;SDS011;22748;8.426;99.512;2023-03-03T07:30:56;11.77;;;9.20;;
36797;SDS011;22748;8.426;99.512;2023-03-03T07:33:27;11.88;;;9.50;;
36797;SDS011;22748;8.426;99.512;2023-03-03T07:35:59;12.10;;;8.82;;
36797;SDS011;22748;8.426;99.512;2023-03-03T07:38:33;11.60;;;9.18;;
36797;SDS011;22748;8.426;99.512;2023-03-03T07:41:09;13.57;;;9.00;;
36797;SDS011;22748;8.426;99.512;2023-03-03T07:43:47;11.50;;;8.20;;
36797;SDS011;22748;8.426;99.512;2023-03-03T07:46:38;9.38;;;7.63;;
36797;SDS011;22748;8.426;99.512;2023-03-03T07:49:15;11.00;;;8.55;;
36797;SDS011;22748;8.426;99.512;2023-03-03T07:51:53;9.27;;;7.13;;
36797;SDS011;22748;8.426;99.512;2023-03-03T07:54:42;9.15;;;7.68;;
36797;SDS011;22748;8.426;99.512;2023-03-03T07:57:21;9.05;;;7.35;;
36797;SDS011;22748;8.426;99.512;2023-03-03T07:59:54;9.82;;;6.53;;
36797;SDS011;22748;8.426;99.512;2023-03-03T08:02:46;8.38;;;6.47;;
36797;SDS011;22748;8.426;99.512;2023-03-03T08:05:33;8.60;;;5.78;;
36797;SDS011;22748;8.426;99.512;2023-03-03T08:10:57;7.55;;;4.75;;
36797;SDS011;22748;8.426;99.512;2023-03-03T08:13:28;7.25;;;4.57;;
36797;SDS011;22748;8.426;99.512;2023-03-03T08:16:22;5.90;;;4.30;;
36797;SDS011;22748;8.426;99.512;2023-03-03T08:19:01;5.15;;;3.83;;
36797;SDS011;22748;8.426;99.512;2023-03-03T08:21:33;5.95;;;3.80;;
36797;SDS011;22748;8.426;99.512;2023-03-03T08:24:07;4.68;;;3.58;;
36797;SDS011;22748;8.426;99.512;2023-03-03T08:26:38;4.93;;;3.50;;
36797;SDS011;22748;8.426;99.512;2023-03-03T08:29:10;4.38;;;3.30;;
36797;SDS011;22748;8.426;99.512;2023-03-03T08:31:44;4.15;;;3.78;;
36797;SDS011;22748;8.426;99.512;2023-03-03T08:34:17;4.88;;;3.80;;
36797;SDS011;22748;8.426;99.512;2023-03-03T08:36:58;6.28;;;3.83;;
36797;SDS011;22748;8.426;99.512;2023-03-03T08:39:28;5.40;;;4.15;;
36797;SDS011;22748;8.426;99.512;2023-03-03T08:41:59;4.22;;;3.80;;
36797;SDS011;22748;8.426;99.512;2023-03-03T08:44:30;3.92;;;3.55;;
36797;SDS011;22748;8.426;99.512;2023-03-03T08:47:00;4.78;;;4.15;;
36797;SDS011;22748;8.426;99.512;2023-03-03T08:49:50;5.10;;;3.97;;
36797;SDS011;22748;8.426;99.512;2023-03-03T08:52:25;5.25;;;4.47;;
36797;SDS011;22748;8.426;99.512;2023-03-03T08:54:55;5.25;;;3.70;;
36797;SDS011;22748;8.426;99.512;2023-03-03T08:57:26;4.28;;;3.20;;
36797;SDS011;22748;8.426;99.512;2023-03-03T08:59:57;4.90;;;3.10;;
36797;SDS011;22748;8.426;99.512;2023-03-03T09:05:00;5.40;;;3.80;;
36797;SDS011;22748;8.426;99.512;2023-03-03T09:07:30;5.30;;;3.55;;
36797;SDS011;22748;8.426;99.512;2023-03-03T09:10:00;4.03;;;3.72;;
36797;SDS011;22748;8.426;99.512;2023-03-03T09:12:33;3.40;;;3.10;;
36797;SDS011;22748;8.426;99.512;2023-03-03T09:15:11;3.28;;;2.97;;
36797;SDS011;22748;8.426;99.512;2023-03-03T09:17:49;3.08;;;2.78;;
36797;SDS011;22748;8.426;99.512;2023-03-03T09:20:37;4.22;;;3.00;;
36797;SDS011;22748;8.426;99.512;2023-03-03T09:28:54;2.58;;;2.38;;
36797;SDS011;22748;8.426;99.512;2023-03-03T09:31:27;2.63;;;2.35;;
36797;SDS011;22748;8.426;99.512;2023-03-03T09:34:10;3.30;;;2.72;;
36797;SDS011;22748;8.426;99.512;2023-03-03T09:36:54;5.00;;;2.83;;
36797;SDS011;22748;8.426;99.512;2023-03-03T09:39:25;5.13;;;3.75;;
36797;SDS011;22748;8.426;99.512;2023-03-03T09:42:11;3.17;;;2.83;;
36797;SDS011;22748;8.426;99.512;2023-03-03T09:45:18;3.67;;;2.45;;
36797;SDS011;22748;8.426;99.512;2023-03-03T09:51:16;3.42;;;2.75;;
36797;SDS011;22748;8.426;99.512;2023-03-03T09:54:07;3.75;;;2.78;;
36797;SDS011;22748;8.426;99.512;2023-03-03T09:56:49;5.00;;;3.20;;
36797;SDS011;22748;8.426;99.512;2023-03-03T09:59:33;2.83;;;2.63;;
36797;SDS011;22748;8.426;99.512;2023-03-03T10:02:21;4.35;;;2.60;;
36797;SDS011;22748;8.426;99.512;2023-03-03T10:05:24;2.92;;;2.50;;
36797;SDS011;22748;8.426;99.512;2023-03-03T10:08:08;3.92;;;2.90;;
36797;SDS011;22748;8.426;99.512;2023-03-03T10:11:06;4.10;;;3.15;;
36797;SDS011;22748;8.426;99.512;2023-03-03T10:13:51;3.45;;;2.67;;
36797;SDS011;22748;8.426;99.512;2023-03-03T10:19:36;3.33;;;2.50;;
36797;SDS011;22748;8.426;99.512;2023-03-03T10:22:15;3.70;;;2.72;;
36797;SDS011;22748;8.426;99.512;2023-03-03T10:24:53;4.28;;;2.17;;
36797;SDS011;22748;8.426;99.512;2023-03-03T10:27:46;3.35;;;2.58;;
36797;SDS011;22748;8.426;99.512;2023-03-03T10:30:39;3.28;;;2.97;;
36797;SDS011;22748;8.426;99.512;2023-03-03T10:33:21;3.25;;;2.95;;
36797;SDS011;22748;8.426;99.512;2023-03-03T10:36:10;4.38;;;2.58;;
36797;SDS011;22748;8.426;99.512;2023-03-03T10:41:49;4.40;;;3.15;;
36797;SDS011;22748;8.426;99.512;2023-03-03T10:44:59;3.47;;;3.13;;
36797;SDS011;22748;8.426;99.512;2023-03-03T10:47:52;5.25;;;3.72;;
36797;SDS011;22748;8.426;99.512;2023-03-03T10:50:37;3.50;;;3.20;;
36797;SDS011;22748;8.426;99.512;2023-03-03T10:53:23;4.28;;;3.70;;
36797;SDS011;22748;8.426;99.512;2023-03-03T10:56:11;5.25;;;4.75;;
36797;SDS011;22748;8.426;99.512;2023-03-03T10:58:53;5.13;;;4.63;;
36797;SDS011;22748;8.426;99.512;2023-03-03T11:01:41;5.97;;;4.97;;
36797;SDS011;22748;8.426;99.512;2023-03-03T11:04:20;5.85;;;5.13;;
36797;SDS011;22748;8.426;99.512;2023-03-03T11:07:05;7.45;;;5.90;;
36797;SDS011;22748;8.426;99.512;2023-03-03T11:09:46;7.40;;;5.18;;
36797;SDS011;22748;8.426;99.512;2023-03-03T11:12:40;7.10;;;6.50;;
36797;SDS011;22748;8.426;99.512;2023-03-03T11:18:17;7.15;;;5.90;;
36797;SDS011;22748;8.426;99.512;2023-03-03T11:20:59;8.23;;;6.80;;
36797;SDS011;22748;8.426;99.512;2023-03-03T11:27:06;6.57;;;5.80;;
36797;SDS011;22748;8.426;99.512;2023-03-03T11:29:53;5.90;;;4.88;;
36797;SDS011;22748;8.426;99.512;2023-03-03T11:32:34;4.50;;;4.07;;
36797;SDS011;22748;8.426;99.512;2023-03-03T11:38:01;4.15;;;3.75;;
36797;SDS011;22748;8.426;99.512;2023-03-03T11:40:46;6.55;;;3.97;;
36797;SDS011;22748;8.426;99.512;2023-03-03T11:43:19;10.50;;;6.82;;
36797;SDS011;22748;8.426;99.512;2023-03-03T11:45:56;11.07;;;8.90;;
36797;SDS011;22748;8.426;99.512;2023-03-03T11:48:33;13.70;;;12.25;;
36797;SDS011;22748;8.426;99.512;2023-03-03T11:51:13;10.07;;;8.43;;
36797;SDS011;22748;8.426;99.512;2023-03-03T11:53:53;25.67;;;23.10;;
36797;SDS011;22748;8.426;99.512;2023-03-03T11:56:33;26.60;;;23.67;;
36797;SDS011;22748;8.426;99.512;2023-03-03T12:02:17;20.58;;;18.48;;
36797;SDS011;22748;8.426;99.512;2023-03-03T12:04:58;13.13;;;11.25;;
36797;SDS011;22748;8.426;99.512;2023-03-03T12:07:39;8.50;;;7.70;;
36797;SDS011;22748;8.426;99.512;2023-03-03T12:10:19;8.40;;;6.68;;
36797;SDS011;22748;8.426;99.512;2023-03-03T12:12:59;7.53;;;6.57;;
36797;SDS011;22748;8.426;99.512;2023-03-03T12:15:36;9.57;;;7.18;;
36797;SDS011;22748;8.426;99.512;2023-03-03T12:21:13;8.33;;;6.00;;
36797;SDS011;22748;8.426;99.512;2023-03-03T12:24:02;6.55;;;5.95;;
36797;SDS011;22748;8.426;99.512;2023-03-03T12:26:49;7.53;;;6.20;;
36797;SDS011;22748;8.426;99.512;2023-03-03T12:29:31;6.95;;;5.47;;
36797;SDS011;22748;8.426;99.512;2023-03-03T12:32:15;9.48;;;5.65;;
36797;SDS011;22748;8.426;99.512;2023-03-03T12:34:53;6.65;;;4.50;;
36797;SDS011;22748;8.426;99.512;2023-03-03T12:37:37;5.75;;;4.32;;
36797;SDS011;22748;8.426;99.512;2023-03-03T12:40:20;5.97;;;4.43;;
36797;SDS011;22748;8.426;99.512;2023-03-03T12:43:02;7.50;;;5.82;;
36797;SDS011;22748;8.426;99.512;2023-03-03T12:45:48;5.15;;;4.32;;
36797;SDS011;22748;8.426;99.512;2023-03-03T12:48:27;7.65;;;5.25;;
36797;SDS011;22748;8.426;99.512;2023-03-03T12:51:08;13.30;;;6.80;;
36797;SDS011;22748;8.426;99.512;2023-03-03T12:54:01;8.38;;;5.75;;
36797;SDS011;22748;8.426;99.512;2023-03-03T12:57:07;8.07;;;5.38;;
36797;SDS011;22748;8.426;99.512;2023-03-03T12:59:48;8.07;;;4.75;;
36797;SDS011;22748;8.426;99.512;2023-03-03T13:02:47;9.63;;;4.90;;
36797;SDS011;22748;8.426;99.512;2023-03-03T13:05:30;13.20;;;4.97;;
36797;SDS011;22748;8.426;99.512;2023-03-03T13:08:31;7.22;;;4.85;;
36797;SDS011;22748;8.426;99.512;2023-03-03T13:11:20;9.82;;;5.40;;
36797;SDS011;22748;8.426;99.512;2023-03-03T13:14:09;8.95;;;5.63;;
36797;SDS011;22748;8.426;99.512;2023-03-03T13:16:47;6.93;;;4.68;;
36797;SDS011;22748;8.426;99.512;2023-03-03T13:19:28;6.25;;;4.93;;
36797;SDS011;22748;8.426;99.512;2023-03-03T13:22:06;8.85;;;6.82;;
36797;SDS011;22748;8.426;99.512;2023-03-03T13:24:45;10.90;;;8.52;;
36797;SDS011;22748;8.426;99.512;2023-03-03T13:27:26;12.15;;;7.80;;
36797;SDS011;22748;8.426;99.512;2023-03-03T13:30:07;15.55;;;8.52;;
36797;SDS011;22748;8.426;99.512;2023-03-03T13:32:48;14.57;;;7.95;;
36797;SDS011;22748;8.426;99.512;2023-03-03T13:35:41;12.20;;;7.30;;
36797;SDS011;22748;8.426;99.512;2023-03-03T13:38:18;7.68;;;6.57;;
36797;SDS011;22748;8.426;99.512;2023-03-03T13:40:58;9.82;;;6.32;;
36797;SDS011;22748;8.426;99.512;2023-03-03T13:43:42;11.43;;;7.90;;
36797;SDS011;22748;8.426;99.512;2023-03-03T13:46:30;12.65;;;7.93;;
36797;SDS011;22748;8.426;99.512;2023-03-03T13:49:15;10.60;;;7.70;;
36797;SDS011;22748;8.426;99.512;2023-03-03T13:52:02;9.52;;;8.18;;
36797;SDS011;22748;8.426;99.512;2023-03-03T13:54:41;16.40;;;9.25;;
36797;SDS011;22748;8.426;99.512;2023-03-03T13:57:28;11.38;;;8.85;;
36797;SDS011;22748;8.426;99.512;2023-03-03T14:00:12;11.10;;;8.20;;
36797;SDS011;22748;8.426;99.512;2023-03-03T14:05:55;10.63;;;8.43;;
36797;SDS011;22748;8.426;99.512;2023-03-03T14:11:24;11.95;;;7.57;;
36797;SDS011;22748;8.426;99.512;2023-03-03T14:13:59;9.07;;;7.60;;
36797;SDS011;22748;8.426;99.512;2023-03-03T14:16:41;10.70;;;7.68;;
36797;SDS011;22748;8.426;99.512;2023-03-03T14:19:20;10.35;;;7.28;;
36797;SDS011;22748;8.426;99.512;2023-03-03T14:21:59;12.63;;;7.63;;
36797;SDS011;22748;8.426;99.512;2023-03-03T14:24:58;11.48;;;7.32;;
36797;SDS011;22748;8.426;99.512;2023-03-03T14:27:34;12.25;;;7.78;;
36797;SDS011;22748;8.426;99.512;2023-03-03T14:30:36;11.88;;;7.20;;
36797;SDS011;22748;8.426;99.512;2023-03-03T14:36:13;14.05;;;6.78;;
36797;SDS011;22748;8.426;99.512;2023-03-03T14:38:53;9.00;;;6.60;;
36797;SDS011;22748;8.426;99.512;2023-03-03T14:41:39;8.93;;;6.47;;
36797;SDS011;22748;8.426;99.512;2023-03-03T14:44:25;12.65;;;6.68;;
36797;SDS011;22748;8.426;99.512;2023-03-03T14:47:02;15.25;;;10.15;;
36797;SDS011;22748;8.426;99.512;2023-03-03T14:49:51;12.30;;;8.65;;
36797;SDS011;22748;8.426;99.512;2023-03-03T14:52:28;10.00;;;6.72;;
36797;SDS011;22748;8.426;99.512;2023-03-03T14:55:26;13.40;;;6.82;;
36797;SDS011;22748;8.426;99.512;2023-03-03T14:58:01;11.75;;;5.90;;
36797;SDS011;22748;8.426;99.512;2023-03-03T15:00:32;9.48;;;6.15;;
36797;SDS011;22748;8.426;99.512;2023-03-03T15:03:14;13.20;;;6.10;;
36797;SDS011;22748;8.426;99.512;2023-03-03T15:05:51;12.35;;;7.25;;
36797;SDS011;22748;8.426;99.512;2023-03-03T15:08:29;14.27;;;6.88;;
36797;SDS011;22748;8.426;99.512;2023-03-03T15:11:23;15.65;;;7.13;;
36797;SDS011;22748;8.426;99.512;2023-03-03T15:14:15;10.88;;;6.47;;
36797;SDS011;22748;8.426;99.512;2023-03-03T15:16:49;10.48;;;6.47;;
36797;SDS011;22748;8.426;99.512;2023-03-03T15:19:38;11.85;;;7.45;;
36797;SDS011;22748;8.426;99.512;2023-03-03T15:22:46;11.15;;;6.60;;
36797;SDS011;22748;8.426;99.512;2023-03-03T15:25:23;10.18;;;6.25;;
36797;SDS011;22748;8.426;99.512;2023-03-03T15:28:08;10.95;;;6.93;;
36797;SDS011;22748;8.426;99.512;2023-03-03T15:30:50;16.27;;;7.10;;
36797;SDS011;22748;8.426;99.512;2023-03-03T15:33:28;9.65;;;6.95;;
36797;SDS011;22748;8.426;99.512;2023-03-03T15:36:05;11.73;;;7.60;;
36797;SDS011;22748;8.426;99.512;2023-03-03T15:38:49;10.80;;;7.90;;
36797;SDS011;22748;8.426;99.512;2023-03-03T15:41:34;12.35;;;8.20;;
36797;SDS011;22748;8.426;99.512;2023-03-03T15:44:12;9.40;;;6.50;;
36797;SDS011;22748;8.426;99.512;2023-03-03T15:46:51;9.32;;;6.70;;
36797;SDS011;22748;8.426;99.512;2023-03-03T15:50:01;9.90;;;6.97;;
36797;SDS011;22748;8.426;99.512;2023-03-03T15:52:43;11.93;;;7.15;;
36797;SDS011;22748;8.426;99.512;2023-03-03T15:55:25;8.88;;;7.13;;
36797;SDS011;22748;8.426;99.512;2023-03-03T16:01:13;9.25;;;6.97;;
36797;SDS011;22748;8.426;99.512;2023-03-03T16:03:53;14.07;;;7.03;;
36797;SDS011;22748;8.426;99.512;2023-03-03T16:06:31;11.32;;;6.50;;
36797;SDS011;22748;8.426;99.512;2023-03-03T16:09:14;9.50;;;6.65;;
36797;SDS011;22748;8.426;99.512;2023-03-03T16:11:59;12.20;;;7.18;;
36797;SDS011;22748;8.426;99.512;2023-03-03T16:14:46;15.98;;;7.38;;
36797;SDS011;22748;8.426;99.512;2023-03-03T16:17:35;7.57;;;6.82;;
36797;SDS011;22748;8.426;99.512;2023-03-03T16:23:02;14.77;;;8.07;;
36797;SDS011;22748;8.426;99.512;2023-03-03T16:26:02;9.88;;;6.88;;
36797;SDS011;22748;8.426;99.512;2023-03-03T16:28:51;9.95;;;7.20;;
36797;SDS011;22748;8.426;99.512;2023-03-03T16:31:35;10.38;;;7.35;;
36797;SDS011;22748;8.426;99.512;2023-03-03T16:34:11;10.05;;;7.18;;
36797;SDS011;22748;8.426;99.512;2023-03-03T16:36:50;11.57;;;7.25;;
36797;SDS011;22748;8.426;99.512;2023-03-03T16:39:31;11.48;;;8.10;;
36797;SDS011;22748;8.426;99.512;2023-03-03T16:42:16;8.07;;;6.43;;
36797;SDS011;22748;8.426;99.512;2023-03-03T16:45:02;8.93;;;6.95;;
36797;SDS011;22748;8.426;99.512;2023-03-03T16:47:57;7.80;;;6.75;;
36797;SDS011;22748;8.426;99.512;2023-03-03T16:50:43;9.77;;;7.22;;
36797;SDS011;22748;8.426;99.512;2023-03-03T16:53:29;14.00;;;7.20;;
36797;SDS011;22748;8.426;99.512;2023-03-03T16:56:13;10.20;;;7.90;;
36797;SDS011;22748;8.426;99.512;2023-03-03T16:58:57;8.95;;;6.93;;
36797;SDS011;22748;8.426;99.512;2023-03-03T17:04:21;13.23;;;7.00;;
36797;SDS011;22748;8.426;99.512;2023-03-03T17:07:09;11.30;;;7.10;;
36797;SDS011;22748;8.426;99.512;2023-03-03T17:12:48;16.42;;;8.25;;
36797;SDS011;22748;8.426;99.512;2023-03-03T17:15:39;13.23;;;9.85;;
36797;SDS011;22748;8.426;99.512;2023-03-03T17:18:19;15.18;;;9.38;;
36797;SDS011;22748;8.426;99.512;2023-03-03T17:21:03;11.52;;;10.32;;
36797;SDS011;22748;8.426;99.512;2023-03-03T17:23:44;12.73;;;10.77;;
36797;SDS011;22748;8.426;99.512;2023-03-03T17:26:28;14.82;;;10.45;;
36797;SDS011;22748;8.426;99.512;2023-03-03T17:32:24;17.67;;;11.00;;
36797;SDS011;22748;8.426;99.512;2023-03-03T17:35:12;14.20;;;10.10;;
36797;SDS011;22748;8.426;99.512;2023-03-03T17:37:55;14.15;;;10.40;;
36797;SDS011;22748;8.426;99.512;2023-03-03T17:40:36;17.77;;;9.85;;
36797;SDS011;22748;8.426;99.512;2023-03-03T17:43:16;11.48;;;10.00;;